Data for 08/11/2013

Time Sea-Level Adjusted Pressure Absolute Pressure Temperature Relative Humidity Dew Point   
(mb) (inHg) (mb) (inHg) (C) (F) (%) (C) (F)
00:05 1022 30.18 851 25.13 19.3 66.7 34 3.1 37.6
00:10 1022 30.18 851 25.13 19.3 66.8 34 3 37.4
00:15 1022 30.18 851 25.13 19.4 66.8 33 3 37.3
00:20 1022 30.18 851 25.13 19.5 67 33 3 37.4
00:25 1022 30.18 851 25.13 19.5 67 33 3 37.3
00:30 1022 30.18 851 25.13 19.5 67 33 2.9 37.3
00:35 1022 30.18 851 25.13 19.4 67 33 2.9 37.3
00:40 1022 30.18 851 25.13 19.4 66.9 33 2.8 37.1
00:45 1022 30.18 851 25.13 19.5 67.1 33 2.8 37.1
00:50 1022 30.18 851 25.13 19.5 67 33 2.8 37.1
00:55 1022 30.18 851 25.13 19.4 66.9 33 2.9 37.3
01:00 1022 30.18 851 25.13 19.1 66.4 34 3.2 37.7
01:05 1022 30.18 851 25.13 19 66.2 34 2.8 37.1
01:10 1022 30.18 851 25.13 19.1 66.4 33 2.8 37
01:15 1022 30.18 851 25.13 19.1 66.3 34 3 37.3
01:20 1022 30.18 851 25.13 18.9 66 35 3.2 37.8
01:25 1022 30.18 851 25.13 18.8 65.8 35 3.1 37.6
01:30 1022 30.18 851 25.13 18.8 65.8 35 3 37.4
01:35 1022 30.18 851 25.13 18.8 65.9 34 2.9 37.2
01:40 1022 30.18 851 25.13 18.8 65.8 35 3.1 37.6
01:45 1022 30.18 851 25.13 18.7 65.6 35 3.2 37.7
01:50 1022 30.18 851 25.13 18.6 65.4 36 3.3 37.9
01:55 1022 30.18 851 25.13 18.2 64.8 37 3.6 38.4
02:00 1021 30.15 851 25.13 18 64.4 38 3.4 38.2
02:05 1021 30.15 851 25.13 18 64.4 37 3.2 37.8
02:10 1021 30.15 851 25.13 18.1 64.5 37 3.2 37.8
02:15 1021 30.15 851 25.13 18.1 64.6 36 3.1 37.5
02:20 1021 30.15 851 25.13 18.3 64.9 37 3.4 38.2
02:25 1021 30.15 851 25.13 18 64.4 37 3.4 38.1
02:30 1021 30.15 851 25.13 17.9 64.2 38 3.6 38.5
02:35 1021 30.15 851 25.13 17.6 63.8 39 3.6 38.5
02:40 1021 30.15 851 25.13 17.5 63.5 39 3.6 38.5
02:45 1021 30.15 851 25.13 17.1 62.8 41 3.8 38.8
02:50 1021 30.15 851 25.13 16.8 62.3 42 3.9 39.1
02:55 1021 30.15 851 25.13 16.5 61.7 42 3.8 38.9
03:00 1021 30.15 850 25.1 16.5 61.6 42 3.7 38.7
03:05 1021 30.15 850 25.1 16.6 61.8 42 3.7 38.6
03:10 1021 30.15 851 25.13 16.6 61.9 42 3.7 38.7
03:15 1021 30.15 851 25.13 16.5 61.6 43 3.9 39.1
03:20 1021 30.15 851 25.13 16.3 61.3 43 3.7 38.7
03:25 1021 30.15 851 25.13 16.3 61.3 43 3.7 38.6
03:30 1021 30.15 851 25.13 16.4 61.4 42 3.6 38.4
03:35 1021 30.15 850 25.1 16.6 61.9 41 3.4 38.1
03:40 1021 30.15 850 25.1 17.1 62.8 39 3.4 38
03:45 1021 30.15 850 25.1 17.4 63.4 39 3.4 38.2
03:50 1021 30.15 850 25.1 17.5 63.5 39 3.7 38.6
03:55 1021 30.15 850 25.1 17.2 63 42 4.4 39.9
04:00 1021 30.15 850 25.1 16.6 61.8 43 4.2 39.5
04:05 1021 30.15 851 25.13 16.4 61.5 43 4 39.2
04:10 1021 30.15 851 25.13 16.3 61.4 43 4 39.2
04:15 1021 30.15 851 25.13 16.3 61.4 43 4 39.2
04:20 1021 30.15 851 25.13 16.2 61.1 44 4.1 39.4
04:25 1021 30.15 851 25.13 15.9 60.6 46 4.3 39.7
04:30 1021 30.15 851 25.13 15.6 60 47 4.4 39.9
04:35 1021 30.15 851 25.13 15.2 59.3 48 4.2 39.6
04:40 1021 30.15 851 25.13 15.2 59.4 46 3.9 39
04:45 1021 30.15 851 25.13 15.4 59.6 46 4 39.2
04:50 1021 30.15 851 25.13 15.3 59.5 48 4.3 39.8
04:55 1022 30.18 851 25.13 15.2 59.3 47 4.1 39.3
05:00 1022 30.18 851 25.13 15 59 48 4.3 39.7
05:05 1022 30.18 851 25.13 14.8 58.7 49 4.2 39.6
05:10 1022 30.18 851 25.13 14.6 58.4 50 4.4 39.8
05:15 1022 30.18 851 25.13 14.3 57.8 50 4.1 39.3
05:20 1022 30.18 851 25.13 14.5 58.1 48 3.9 38.9
05:25 1022 30.18 851 25.13 14.8 58.7 49 4.4 39.9
05:30 1022 30.18 851 25.13 14.4 57.9 50 4.3 39.8
05:35 1022 30.18 851 25.13 14.5 58 49 3.9 39
05:40 1022 30.18 851 25.13 14.7 58.4 47 3.7 38.6
05:45 1022 30.18 851 25.13 14.6 58.3 50 4.3 39.8
05:50 1022 30.18 851 25.13 14 57.1 51 4 39.2
05:55 1022 30.18 851 25.13 14 57.2 50 3.9 39
06:00 1022 30.18 851 25.13 13.8 56.9 52 4.2 39.6
06:05 1022 30.18 851 25.13 13.6 56.5 53 4.4 39.9
06:10 1022 30.18 851 25.13 13.6 56.5 53 4.3 39.7
06:15 1022 30.18 851 25.13 13.8 56.8 51 3.8 38.9
06:20 1022 30.18 851 25.13 14.5 58 48 3.6 38.5
06:25 1022 30.18 851 25.13 15 59.1 47 3.9 38.9
06:30 1022 30.18 851 25.13 15.4 59.7 47 4.3 39.7
06:35 1022 30.18 851 25.13 14.7 58.5 53 5.2 41.4
06:40 1022 30.18 851 25.13 14.3 57.7 52 4.7 40.4
06:45 1022 30.18 851 25.13 13.7 56.6 52 4.1 39.4
06:50 1022 30.18 851 25.13 14.1 57.4 51 4.1 39.3
06:55 1022 30.18 851 25.13 14.7 58.4 52 5 41
07:00 1022 30.18 851 25.13 15 58.9 49 4.4 39.9
07:05 1022 30.18 851 25.13 15.2 59.4 48 4.5 40.1
07:10 1022 30.18 851 25.13 15.6 60.2 48 4.7 40.4
07:15 1022 30.18 851 25.13 15.7 60.3 47 4.4 40
07:20 1022 30.18 851 25.13 15.8 60.4 46 4.2 39.5
07:25 1022 30.18 851 25.13 16.1 61 45 4.4 39.8
07:30 1022 30.18 851 25.13 16.4 61.4 46 4.8 40.7
07:35 1022 30.18 851 25.13 17 62.5 46 5.3 41.5
07:40 1022 30.18 851 25.13 16.8 62.3 47 5.5 41.9
07:45 1022 30.18 851 25.13 17.4 63.4 46 5.8 42.5
07:50 1022 30.18 851 25.13 18 64.4 43 5.4 41.7
07:55 1022 30.18 851 25.13 18.3 64.9 43 5.8 42.4
08:00 1022 30.18 851 25.13 18.7 65.7 43 6 42.8
08:05 1022 30.18 851 25.13 19.1 66.4 44 6.6 44
08:10 1022 30.18 851 25.13 19 66.2 42 5.8 42.4
08:15 1022 30.18 851 25.13 19 66.3 42 6 42.8
08:20 1022 30.18 851 25.13 19.4 66.8 40 5.6 42.2
08:25 1022 30.18 851 25.13 19.6 67.2 38 5.1 41.3
08:30 1022 30.18 851 25.13 20.5 68.8 36 5 41
08:35 1022 30.18 851 25.13 21.4 70.6 35 5.4 41.7
08:40 1022 30.18 851 25.13 21.8 71.2 32 4.5 40
08:45 1022 30.18 851 25.13 21.5 70.7 33 4.8 40.7
08:50 1022 30.18 851 25.13 21.7 71 32 4.6 40.2
08:55 1022 30.18 851 25.13 22.1 71.7 31 4.5 40
09:00 1022 30.18 851 25.13 22 71.6 30 4 39.2
09:05 1022 30.18 851 25.13 22.3 72.1 30 3.9 39
09:10 1022 30.18 851 25.13 22.8 73 30 4.5 40.1
09:15 1022 30.18 851 25.13 22.5 72.4 30 4.4 40
09:20 1022 30.18 851 25.13 22.6 72.7 32 5.1 41.2
09:25 1022 30.18 851 25.13 22.4 72.2 32 4.9 40.8
09:30 1022 30.18 851 25.13 22.3 72.1 32 4.9 40.8
09:35 1022 30.18 851 25.13 23 73.5 30 4.7 40.5
09:40 1022 30.18 851 25.13 23.5 74.3 30 5.1 41.2
09:45 1022 30.18 851 25.13 23.6 74.5 31 5.7 42.3
09:50 1022 30.18 851 25.13 23.6 74.5 30 5.3 41.5
09:55 1022 30.18 851 25.13 23.4 74.1 30 5.2 41.3
10:00 1022 30.18 851 25.13 23.4 74 31 5.4 41.7
10:05 1022 30.18 851 25.13 23 73.4 31 5.3 41.5
10:10 1022 30.18 851 25.13 23.7 74.7 29 4.9 40.9
10:15 1022 30.18 851 25.13 24.3 75.8 28 5.1 41.2
10:20 1021 30.15 851 25.13 23.9 75.1 30 5.4 41.6
10:25 1021 30.15 851 25.13 23.3 74 30 4.8 40.7
10:30 1021 30.15 851 25.13 24.5 76 28 4.9 40.8
10:35 1021 30.15 850 25.1 24.7 76.4 27 4.8 40.6
10:40 1021 30.15 850 25.1 24.9 76.8 27 5.1 41.1
10:45 1021 30.15 850 25.1 24.7 76.4 27 4.7 40.4
10:50 1021 30.15 850 25.1 25.2 77.3 27 5.1 41.2
10:55 1021 30.15 850 25.1 25.1 77.1 28 5.5 41.8
11:00 1021 30.15 850 25.1 25.9 78.6 26 5.3 41.6
11:05 1021 30.15 850 25.1 26.2 79.2 25 4.9 40.7
11:10 1021 30.15 850 25.1 26.6 80 24 5 40.9
11:15 1021 30.15 850 25.1 25.6 78.1 27 5.4 41.7
11:20 1021 30.15 850 25.1 26.2 79.2 24 4.6 40.2
11:25 1021 30.15 850 25.1 26.6 79.8 24 4.8 40.6
11:30 1021 30.15 850 25.1 26.9 80.5 24 4.7 40.5
11:35 1021 30.15 850 25.1 27.2 80.9 24 5 40.9
11:40 1021 30.15 850 25.1 26.2 79.2 24 4.5 40.1
11:45 1021 30.15 850 25.1 25.8 78.4 25 4.3 39.7
11:50 1021 30.15 850 25.1 25.9 78.5 24 4 39.2
11:55 1021 30.15 850 25.1 26.9 80.5 22 3.9 39.1
12:00 1020 30.12 850 25.1 27 80.6 24 4.8 40.6
12:05 1020 30.12 850 25.1 26.7 80.1 25 5.5 42
12:10 1021 30.15 850 25.1 26 78.7 25 4.4 40
12:15 1021 30.15 850 25.1 25.6 78.2 25 4.5 40.2
12:20 1021 30.15 850 25.1 25.4 77.7 26 4.8 40.7
12:25 1021 30.15 850 25.1 25.4 77.7 25 4.1 39.4
12:30 1021 30.15 850 25.1 25.5 77.9 26 5 41
12:35 1021 30.15 850 25.1 25.6 78.1 25 4.6 40.3
12:40 1021 30.15 850 25.1 25.4 77.6 27 5.5 41.8
12:45 1021 30.15 850 25.1 24.3 75.7 30 5.8 42.5
12:50 1021 30.15 850 25.1 23.8 74.8 30 5.3 41.5
12:55 1021 30.15 850 25.1 23.8 74.8 31 5.7 42.3
13:00 1021 30.15 850 25.1 23.8 74.9 30 5.4 41.7
13:05 1021 30.15 850 25.1 23.8 74.8 31 5.8 42.5
13:10 1021 30.15 850 25.1 23.7 74.6 26 3.3 38
13:15 1021 30.15 850 25.1 24.2 75.5 24 2.7 36.9
13:20 1021 30.15 850 25.1 24 75.3 20 0.1 32.2
13:25 1021 30.15 850 25.1 24.3 75.7 19 -0.7 30.7
13:30 1021 30.15 850 25.1 24.6 76.3 16 -2.5 27.6
13:35 1021 30.15 850 25.1 24.9 76.7 17 -1.4 29.5
13:40 1021 30.15 850 25.1 24.8 76.6 16 -2.5 27.5
13:45 1021 30.15 850 25.1 25 76.9 15 -3.3 26.1
13:50 1021 30.15 850 25.1 25.4 77.7 15 -2.8 26.9
13:55 1021 30.15 850 25.1 25.4 77.6 21 1.5 34.8
14:00 1021 30.15 850 25.1 24.2 75.5 20 -0.3 31.4
14:05 1021 30.15 850 25.1 23.9 75.1 22 1.5 34.6
14:10 1021 30.15 850 25.1 23.8 74.8 23 1.4 34.5
14:15 1021 30.15 850 25.1 23.7 74.7 23 1.8 35.2
14:20 1021 30.15 850 25.1 23.7 74.6 26 3 37.4
14:25 1021 30.15 850 25.1 23.6 74.4 26 3 37.4
14:30 1021 30.15 850 25.1 24 75.1 23 2 35.5
14:35 1021 30.15 850 25.1 24 75.2 25 3.1 37.5
14:40 1021 30.15 850 25.1 24.2 75.6 22 1.5 34.7
14:45 1021 30.15 850 25.1 24.1 75.3 26 3.5 38.3
14:50 1021 30.15 850 25.1 24 75.1 19 -0.6 30.9
14:55 1021 30.15 850 25.1 25.1 77.2 17 -1.2 29.8
15:00 1021 30.15 850 25.1 25.6 78.1 18 -0.1 31.9
15:05 1021 30.15 851 25.13 25.5 77.9 22 2.6 36.8
15:10 1022 30.18 851 25.13 25.1 77.1 24 3.2 37.7
15:15 1022 30.18 851 25.13 25 76.9 25 3.9 39
15:20 1022 30.18 851 25.13 24.8 76.6 27 4.7 40.5
15:25 1022 30.18 851 25.13 24.4 75.9 27 4.4 40
15:30 1022 30.18 851 25.13 24.2 75.5 30 5.7 42.2
15:35 1022 30.18 851 25.13 24.2 75.6 26 3.5 38.4
15:40 1022 30.18 851 25.13 24.5 76.1 23 2.5 36.6
15:45 1022 30.18 851 25.13 24.6 76.3 23 2.3 36.1
15:50 1022 30.18 851 25.13 24.7 76.4 25 3.7 38.6
15:55 1022 30.18 851 25.13 24.3 75.7 25 3.1 37.6
16:00 1022 30.18 851 25.13 24 75.1 25 3.2 37.7
16:05 1022 30.18 851 25.13 23.7 74.6 24 2 35.6
16:10 1022 30.18 851 25.13 23.5 74.3 24 1.8 35.3
16:15 1022 30.18 851 25.13 23.6 74.6 24 2 35.6
16:20 1022 30.18 851 25.13 23.7 74.6 24 2.1 35.9
16:25 1022 30.18 851 25.13 23.3 73.9 27 3.5 38.3
16:30 1021 30.15 850 25.1 23 73.3 28 3.7 38.7
16:35 1021 30.15 850 25.1 22.9 73.2 28 3.6 38.4
16:40 1021 30.15 850 25.1 22.9 73.3 28 3.5 38.3
16:45 1021 30.15 850 25.1 23.2 73.7 29 4.3 39.8
16:50 1021 30.15 850 25.1 23.4 74.2 27 3.6 38.5
16:55 1021 30.15 850 25.1 23.5 74.3 27 3.4 38.1
17:00 1021 30.15 850 25.1 23.8 74.9 26 3.7 38.6
17:05 1021 30.15 850 25.1 24 75.3 26 3.8 38.8
17:10 1021 30.15 850 25.1 24.4 76 25 3.1 37.6
17:15 1021 30.15 850 25.1 24.4 75.8 26 3.9 39
17:20 1021 30.15 850 25.1 24.6 76.2 24 3 37.4
17:25 1021 30.15 850 25.1 24.5 76.1 23 2.2 35.9
17:30 1021 30.15 850 25.1 24.3 75.7 24 2.8 37
17:35 1021 30.15 850 25.1 24.4 75.9 23 2.3 36.1
17:40 1021 30.15 850 25.1 24.6 76.3 24 2.7 36.9
17:45 1021 30.15 850 25.1 24.7 76.5 22 2.1 35.8
17:50 1021 30.15 850 25.1 24.6 76.2 23 2.4 36.3
17:55 1021 30.15 850 25.1 24.4 76 24 2.7 36.8
18:00 1021 30.15 850 25.1 24.3 75.7 24 2.4 36.3
18:05 1021 30.15 850 25.1 24.3 75.8 23 2.2 36
18:10 1021 30.15 850 25.1 24.3 75.7 24 2.6 36.7
18:15 1021 30.15 850 25.1 24.2 75.6 24 2.8 37.1
18:20 1021 30.15 850 25.1 24.1 75.4 24 2.3 36.2
18:25 1021 30.15 850 25.1 23.9 75.1 24 2.5 36.5
18:30 1021 30.15 850 25.1 23.7 74.6 25 2.6 36.7
18:35 1021 30.15 850 25.1 23.5 74.3 26 3.2 37.7
18:40 1021 30.15 850 25.1 23.3 73.9 26 2.9 37.1
18:45 1021 30.15 850 25.1 23.3 73.9 25 2.3 36.1
18:50 1021 30.15 850 25.1 23.5 74.4 25 2.6 36.7
18:55 1021 30.15 850 25.1 23.6 74.4 25 2.3 36.2
19:00 1021 30.15 850 25.1 23.5 74.3 25 2.5 36.4
19:05 1021 30.15 850 25.1 23.5 74.3 25 2.8 37.1
19:10 1021 30.15 850 25.1 23.4 74.1 27 3.4 38
19:15 1021 30.15 850 25.1 23.1 73.6 27 3.5 38.3
19:20 1021 30.15 850 25.1 22.7 72.8 28 3.5 38.3
19:25 1021 30.15 850 25.1 22.3 72.2 28 3.3 37.9
19:30 1021 30.15 850 25.1 22.1 71.8 29 3.5 38.4
19:35 1021 30.15 850 25.1 22 71.6 30 3.6 38.5
19:40 1021 30.15 850 25.1 21.8 71.3 30 3.5 38.4
19:45 1021 30.15 850 25.1 21.7 71 29 3.1 37.5
19:50 1021 30.15 850 25.1 21.7 71 29 3.1 37.7
19:55 1021 30.15 850 25.1 21.4 70.5 30 3.1 37.6
20:00 1021 30.15 850 25.1 21.4 70.4 30 3.4 38
20:05 1021 30.15 851 25.13 21.1 70 30 3 37.4
20:10 1022 30.18 851 25.13 21.1 70.1 30 3.2 37.8
20:15 1022 30.18 851 25.13 21 69.8 32 4 39.1
20:20 1022 30.18 851 25.13 20.4 68.7 32 3.5 38.4
20:25 1022 30.18 851 25.13 20.7 69.2 32 3.4 38.1
20:30 1022 30.18 851 25.13 20.2 68.4 33 3.8 38.9
20:35 1022 30.18 851 25.13 19.7 67.5 36 4.5 40.1
20:40 1022 30.18 851 25.13 19.3 66.7 37 4.4 39.8
20:45 1022 30.18 851 25.13 19.1 66.4 37 4.3 39.7
20:50 1022 30.18 851 25.13 19.3 66.8 39 5.1 41.2
20:55 1022 30.18 851 25.13 19.2 66.6 39 5.1 41.2
21:00 1022 30.18 851 25.13 18.5 65.3 39 4.3 39.7
21:05 1022 30.18 851 25.13 18.5 65.4 38 4.1 39.3
21:10 1022 30.18 851 25.13 18.5 65.2 39 4.3 39.7
21:15 1022 30.18 851 25.13 18.5 65.3 41 5.1 41.1
21:20 1022 30.18 851 25.13 17.2 63 44 5.1 41.2
21:25 1022 30.18 851 25.13 16.9 62.5 44 4.6 40.3
21:30 1022 30.18 851 25.13 17.1 62.8 42 4.3 39.7
21:35 1022 30.18 851 25.13 17.4 63.2 43 4.6 40.3
21:40 1022 30.18 851 25.13 17.2 63 43 4.7 40.5
21:45 1022 30.18 851 25.13 16.6 61.8 45 4.6 40.3
21:50 1022 30.18 851 25.13 16.5 61.6 42 3.7 38.7
21:55 1022 30.18 851 25.13 16.7 62.1 39 2.9 37.3
22:00 1022 30.18 851 25.13 17.2 62.9 40 3.5 38.3
22:05 1022 30.18 851 25.13 17.5 63.5 38 3.2 37.7
22:10 1022 30.18 851 25.13 17.8 64 38 3.3 38
22:15 1022 30.18 851 25.13 17.7 63.8 38 3.4 38.2
22:20 1022 30.18 851 25.13 17.3 63.2 39 3.3 37.9
22:25 1022 30.18 851 25.13 16.8 62.2 41 3.7 38.6
22:30 1022 30.18 851 25.13 16.6 61.9 41 3.4 38.2
22:35 1022 30.18 851 25.13 16.8 62.2 41 3.4 38.2
22:40 1022 30.18 851 25.13 17.1 62.7 39 3 37.3
22:45 1022 30.18 851 25.13 17.5 63.5 40 3.7 38.7
22:50 1022 30.18 851 25.13 17.9 64.2 40 4.3 39.8
22:55 1022 30.18 851 25.13 16.9 62.3 42 4.1 39.3
23:00 1022 30.18 851 25.13 16.2 61.1 43 3.8 38.9
23:05 1022 30.18 851 25.13 16.1 61.1 43 3.5 38.3
23:10 1022 30.18 851 25.13 16 60.7 46 4.4 40
23:15 1022 30.18 851 25.13 15.2 59.4 46 3.9 39
23:20 1022 30.18 851 25.13 15.4 59.7 50 5.2 41.4
23:25 1022 30.18 851 25.13 15.5 59.8 46 4 39.2
23:30 1022 30.18 851 25.13 15 59 48 4.1 39.3
23:35 1022 30.18 851 25.13 14.9 58.8 47 3.7 38.7
23:40 1022 30.18 851 25.13 15.9 60.6 42 3.3 37.9
23:45 1022 30.18 851 25.13 16.4 61.4 40 3 37.3
23:50 1022 30.18 851 25.13 16.7 62 41 3.3 38
23:55 1022 30.18 851 25.13 16.3 61.4 46 4.9 40.8
24:00 1022 30.18 851 25.13 15.5 59.9 47 4.2 39.5